Time;durP1;ratioP1;P1;durP2;ratioP2;P2;SDS_P1;SDS_P2;PMS_P1;PMS_P2;Temp;Humidity;BMP_temperature;BMP_pressure;BME280_temperature;BME280_humidity;BME280_pressure;Samples;Min_cycle;Max_cycle;Signal;HPM_P1;HPM_P2
2022/06/23 00:00:02;;;;;;;1.67;1.40;;;;;;;10.73;68.33;95334.55;1765361;81;21464;-65
2022/06/23 00:02:35;;;;;;;3.23;1.50;;;;;;;10.63;67.76;95340.95;1764975;81;21030;-65
2022/06/23 00:05:07;;;;;;;1.90;1.70;;;;;;;10.56;69.05;95334.97;1733610;81;21500;-65
2022/06/23 00:07:37;;;;;;;1.60;1.50;;;;;;;10.59;69.46;95334.89;1765420;81;21053;-65
2022/06/23 00:10:18;;;;;;;1.57;1.40;;;;;;;10.55;69.35;95322.66;1765311;81;21097;-65
2022/06/23 00:12:46;;;;;;;1.90;1.43;;;;;;;10.51;69.42;95328.92;1765060;81;21070;-65
2022/06/23 00:15:25;;;;;;;1.93;1.30;;;;;;;10.44;68.74;95334.38;1765263;81;21085;-65
2022/06/23 00:18:00;;;;;;;1.20;1.10;;;;;;;10.40;69.31;95333.56;1765451;81;21030;-65
2022/06/23 00:20:46;;;;;;;1.20;1.10;;;;;;;10.36;69.45;95327.95;1765206;81;21010;-65
2022/06/23 00:23:27;;;;;;;1.57;1.47;;;;;;;10.27;69.66;95330.75;1765506;81;21050;-65
2022/06/23 00:26:13;;;;;;;1.47;1.10;;;;;;;10.21;69.56;95328.26;1765314;81;21014;-65
2022/06/23 00:28:48;;;;;;;2.00;1.20;;;;;;;10.29;69.77;95336.44;1765142;81;21516;-65
2022/06/23 00:31:35;;;;;;;3.93;1.60;;;;;;;10.30;70.43;95333.34;1765288;81;21022;-65
2022/06/23 00:34:16;;;;;;;3.30;1.40;;;;;;;10.33;69.72;95347.34;1765175;81;21050;-65
2022/06/23 00:36:54;;;;;;;3.50;1.33;;;;;;;10.37;70.22;95348.14;1765666;81;21011;-65
2022/06/23 00:39:39;;;;;;;2.80;1.30;;;;;;;10.39;70.34;95341.92;1762244;81;21046;-65
2022/06/23 00:42:30;;;;;;;2.27;1.33;;;;;;;10.44;70.94;95344.92;1765144;81;21527;-65
2022/06/23 00:45:11;;;;;;;1.93;1.50;;;;;;;10.52;70.31;95339.02;1764888;81;21132;-65
2022/06/23 00:47:58;;;;;;;1.90;1.50;;;;;;;10.55;69.87;95338.48;1765309;81;21014;-65
2022/06/23 00:50:36;;;;;;;2.13;1.50;;;;;;;10.54;69.97;95336.77;1765387;81;21015;-65
2022/06/23 00:53:17;;;;;;;1.70;1.60;;;;;;;10.56;70.79;95345.52;1765240;81;21038;-65
2022/06/23 00:56:10;;;;;;;1.43;1.30;;;;;;;10.56;70.32;95347.30;1763580;81;21037;-65
2022/06/23 00:58:43;;;;;;;;;;;;;;;10.51;69.67;95340.80;1768166;81;20975;-65
2022/06/23 01:01:41;;;;;;;2.60;1.60;;;;;;;10.50;69.48;95343.45;1765385;81;20154;-65
2022/06/23 01:04:39;;;;;;;1.77;1.33;;;;;;;10.50;69.32;95343.00;1765053;81;21091;-65
2022/06/23 01:07:20;;;;;;;3.57;1.43;;;;;;;10.49;69.30;95342.59;1765558;81;20971;-65
2022/06/23 01:10:13;;;;;;;2.10;1.40;;;;;;;10.39;70.45;95341.92;1764648;81;21002;-65
2022/06/23 01:12:48;;;;;;;3.47;1.70;;;;;;;10.30;70.77;95338.62;1765150;81;21078;-65
2022/06/23 01:15:35;;;;;;;2.50;1.57;;;;;;;10.22;71.72;95337.43;1761059;81;21022;-65
2022/06/23 01:18:21;;;;;;;1.63;1.40;;;;;;;10.17;72.16;95337.98;1765315;81;20990;-65
2022/06/23 01:21:20;;;;;;;1.27;1.17;;;;;;;10.19;70.81;95338.37;1765294;81;21041;-65
2022/06/23 01:24:13;;;;;;;3.83;1.60;;;;;;;10.14;71.27;95332.32;1720900;81;21015;-65
2022/06/23 01:27:01;;;;;;;3.47;1.72;;;;;;;10.18;71.70;95330.51;1765333;81;21062;-65
2022/06/23 01:29:39;;;;;;;3.17;1.30;;;;;;;10.23;71.17;95333.91;1763991;81;21045;-65
2022/06/23 01:32:20;;;;;;;2.83;1.40;;;;;;;10.20;71.06;95349.77;1765108;81;21030;-65
2022/06/23 01:35:07;;;;;;;2.70;1.43;;;;;;;10.18;71.61;95342.38;1761917;81;21547;-65
2022/06/23 01:38:03;;;;;;;3.20;1.90;;;;;;;10.28;71.41;95351.86;1765196;81;21014;-65
2022/06/23 01:40:36;;;;;;;4.50;1.80;;;;;;;10.29;70.96;95354.03;1763991;81;21066;-65
2022/06/23 01:43:07;;;;;;;1.70;1.40;;;;;;;10.31;71.22;95341.69;1761809;81;20990;-65
2022/06/23 01:46:01;;;;;;;4.67;1.93;;;;;;;10.29;70.54;95340.39;1765197;81;21018;-65
2022/06/23 01:49:03;;;;;;;2.53;1.60;;;;;;;10.35;70.38;95330.16;1765260;81;21085;-65
2022/06/23 01:51:44;;;;;;;1.83;1.40;;;;;;;10.35;70.44;95327.52;1765262;81;21019;-65
2022/06/23 01:54:22;;;;;;;2.67;1.50;;;;;;;10.26;70.57;95322.44;1755243;81;21022;-65
2022/06/23 01:57:15;;;;;;;2.17;1.40;;;;;;;10.26;70.88;95324.61;1765453;81;21014;-65
2022/06/23 02:00:11;;;;;;;1.52;1.35;;;;;;;10.24;71.17;95323.77;1764448;81;21021;-65
2022/06/23 02:03:05;;;;;;;2.30;1.60;;;;;;;10.19;71.37;95316.41;1765245;81;21041;-65
2022/06/23 02:05:54;;;;;;;3.02;1.85;;;;;;;10.20;71.21;95312.86;1765375;81;21508;-65
2022/06/23 02:08:52;;;;;;;1.63;1.53;;;;;;;10.22;71.28;95320.30;1765379;81;20982;-65
2022/06/23 02:11:33;;;;;;;1.73;1.63;;;;;;;10.27;71.26;95326.34;1765256;81;21026;-65
2022/06/23 02:14:08;;;;;;;3.73;1.30;;;;;;;10.33;71.58;95335.91;1765188;81;21022;-65
2022/06/23 02:17:04;;;;;;;2.40;1.70;;;;;;;10.27;70.97;95330.29;1764492;81;21034;-65
2022/06/23 02:19:50;;;;;;;1.63;1.30;;;;;;;10.15;70.63;95332.77;1765416;81;21075;-65
2022/06/23 02:22:37;;;;;;;3.17;1.70;;;;;;;9.90;72.20;95327.55;1765110;81;21057;-65
2022/06/23 02:25:26;;;;;;;2.57;1.50;;;;;;;9.81;72.40;95323.34;1764024;81;21062;-65
2022/06/23 02:28:01;;;;;;;1.70;1.60;;;;;;;9.81;72.25;95329.94;1764012;81;21019;-65
2022/06/23 02:30:51;;;;;;;3.30;1.53;;;;;;;9.89;72.01;95328.46;1761312;81;21531;-65
2022/06/23 02:33:31;;;;;;;1.53;1.43;;;;;;;9.93;72.60;95336.73;1764881;81;21136;-65
2022/06/23 02:36:26;;;;;;;2.60;2.03;;;;;;;9.84;72.56;95333.81;1765408;81;21054;-65
2022/06/23 02:39:00;;;;;;;2.30;1.77;;;;;;;9.80;73.04;95342.67;1765067;81;21025;-65
2022/06/23 02:41:41;;;;;;;1.97;1.43;;;;;;;9.80;73.08;95340.48;1765254;81;21026;-65
2022/06/23 02:44:39;;;;;;;1.87;1.70;;;;;;;9.80;72.88;95341.81;1765139;81;21125;-65
2022/06/23 02:47:35;;;;;;;2.93;1.60;;;;;;;9.85;72.29;95343.48;1765251;81;20994;-65
2022/06/23 02:50:14;;;;;;;3.20;1.57;;;;;;;10.00;72.81;95340.09;1764538;81;21046;-65
2022/06/23 02:53:14;;;;;;;2.83;1.97;;;;;;;10.05;72.33;95342.19;1761287;81;21027;-65
2022/06/23 02:56:13;;;;;;;2.53;1.70;;;;;;;10.12;72.73;95346.44;1765336;81;21019;-65
2022/06/23 02:59:03;;;;;;;2.90;1.73;;;;;;;10.15;72.91;95341.98;1764173;81;21057;-65
2022/06/23 03:01:40;;;;;;;1.97;1.20;;;;;;;10.23;72.84;95323.37;1733229;81;21038;-65
2022/06/23 03:04:29;;;;;;;4.57;1.40;;;;;;;10.28;72.42;95324.59;1760071;81;21556;-65
2022/06/23 03:07:01;;;;;;;1.43;1.33;;;;;;;10.42;72.49;95333.53;1758542;82;21097;-65
2022/06/23 03:09:42;;;;;;;2.50;1.45;;;;;;;10.53;71.76;95324.91;1758644;82;21007;-65
2022/06/23 03:12:19;;;;;;;6.37;2.87;;;;;;;10.54;71.41;95327.99;1756553;82;21014;-65
2022/06/23 03:15:03;;;;;;;7.43;4.30;;;;;;;10.56;72.37;95325.73;1758513;82;20979;-65
2022/06/23 03:17:59;;;;;;;6.87;4.30;;;;;;;10.63;72.01;95328.22;1758567;81;21548;-65
2022/06/23 03:20:53;;;;;;;7.47;4.57;;;;;;;10.73;71.68;95328.42;1758617;82;21007;-65
2022/06/23 03:23:43;;;;;;;8.15;4.67;;;;;;;10.83;71.32;95329.94;1757052;82;21165;-65
2022/06/23 03:26:57;;;;;;;2.80;2.00;;;;;;;10.89;71.54;95338.19;1758442;82;21069;-65
2022/06/23 03:29:41;;;;;;;2.30;2.00;;;;;;;10.98;71.16;95343.22;1732492;82;21583;-65
2022/06/23 03:32:16;;;;;;;5.70;2.33;;;;;;;11.08;71.21;95339.45;1758403;82;21018;-65
2022/06/23 03:35:03;;;;;;;7.10;4.40;;;;;;;11.16;71.41;95346.75;1758488;81;21027;-65
2022/06/23 03:38:01;;;;;;;7.30;5.40;;;;;;;11.20;71.81;95336.51;1758513;82;21038;-65
2022/06/23 03:43:40;;;;;;;15.63;10.20;;;;;;;11.20;71.90;95340.47;1758298;82;21497;-65
2022/06/23 03:46:28;;;;;;;7.00;5.10;;;;;;;11.28;71.26;95346.02;1758080;82;21521;-65
2022/06/23 03:49:22;;;;;;;3.73;2.40;;;;;;;11.29;71.32;95340.70;1731010;82;21014;-65
2022/06/23 03:51:59;;;;;;;10.33;7.70;;;;;;;11.36;71.53;95344.90;1758587;81;21011;-65
2022/06/23 03:54:57;;;;;;;13.33;9.13;;;;;;;11.38;72.81;95333.84;1758487;82;21003;-65
2022/06/23 03:57:44;;;;;;;49.30;19.07;;;;;;;11.35;72.97;95330.43;1758215;82;21070;-65
2022/06/23 04:00:25;;;;;;;36.27;17.27;;;;;;;11.31;72.99;95330.08;1758097;82;21053;-65
2022/06/23 04:03:07;;;;;;;25.37;12.90;;;;;;;11.40;73.23;95324.11;1757884;82;21034;-66
2022/06/23 04:05:59;;;;;;;23.90;12.97;;;;;;;11.52;72.61;95326.89;1763569;81;21527;-65
2022/06/23 04:08:30;;;;;;;23.27;11.17;;;;;;;11.59;72.45;95343.00;1765220;81;20987;-65
2022/06/23 04:11:43;;;;;;;21.37;11.87;;;;;;;11.70;72.58;95338.75;1764264;81;21037;-65
2022/06/23 04:13:36;;;;;;;21.90;13.30;;;;;;;11.81;73.20;95338.45;1760364;81;21082;-65
2022/06/23 04:16:08;;;;;;;20.70;12.45;;;;;;;11.94;72.81;95339.00;1765472;81;20966;-65
2022/06/23 04:18:42;;;;;;;20.93;10.97;;;;;;;12.06;72.01;95340.84;1765198;81;20991;-65
2022/06/23 04:21:17;;;;;;;23.80;11.73;;;;;;;12.21;71.21;95350.58;1765384;81;20959;-65
2022/06/23 04:23:49;;;;;;;17.23;8.63;;;;;;;12.33;70.95;95349.77;1765307;81;21014;-65
2022/06/23 04:26:29;;;;;;;10.50;7.23;;;;;;;12.49;70.28;95354.14;1765302;81;21030;-65
2022/06/23 04:29:10;;;;;;;14.47;8.13;;;;;;;12.62;69.92;95348.02;1764160;81;21023;-65
2022/06/23 04:31:42;;;;;;;12.27;5.97;;;;;;;12.70;69.91;95343.81;1765318;81;21006;-65
2022/06/23 04:34:20;;;;;;;8.47;5.80;;;;;;;12.85;69.74;95341.15;1765400;81;21109;-65
2022/06/23 04:36:47;;;;;;;6.62;5.12;;;;;;;12.99;69.92;95338.94;1765406;81;20975;-65
2022/06/23 04:39:31;;;;;;;6.07;4.70;;;;;;;13.06;69.27;95343.13;1765045;81;21082;-65
2022/06/23 04:42:15;;;;;;;9.33;4.07;;;;;;;13.12;69.75;95336.29;1765567;81;21003;-65
2022/06/23 04:44:49;;;;;;;3.87;3.47;;;;;;;13.24;69.17;95342.13;1765190;81;21010;-65
2022/06/23 04:47:26;;;;;;;4.10;3.70;;;;;;;13.35;68.88;95332.91;1765310;81;21070;-65
2022/06/23 04:50:00;;;;;;;4.28;3.15;;;;;;;13.44;69.00;95338.38;1765038;81;21031;-65
2022/06/23 04:52:39;;;;;;;4.95;3.52;;;;;;;13.49;68.45;95337.77;1764343;81;21484;-65
2022/06/23 04:55:13;;;;;;;5.03;2.90;;;;;;;13.57;68.07;95338.82;1763849;81;21031;-65
2022/06/23 04:58:06;;;;;;;3.42;2.87;;;;;;;13.64;67.36;95340.34;1765487;81;21002;-65
2022/06/23 05:00:43;;;;;;;5.22;2.60;;;;;;;13.71;66.93;95349.83;1763817;81;21046;-65
2022/06/23 05:03:36;;;;;;;3.62;2.70;;;;;;;13.73;66.83;95346.63;1765514;81;21092;-65
2022/06/23 05:06:20;;;;;;;3.90;2.67;;;;;;;13.78;66.81;95351.34;1758927;81;21003;-65
2022/06/23 05:08:49;;;;;;;3.22;2.72;;;;;;;13.82;67.19;95350.30;1758527;82;21551;-65
2022/06/23 05:11:23;;;;;;;2.90;2.47;;;;;;;13.83;67.97;95350.73;1758515;81;21058;-65
2022/06/23 05:14:05;;;;;;;4.70;2.60;;;;;;;13.79;67.41;95350.88;1753263;82;21043;-65
2022/06/23 05:16:38;;;;;;;2.95;2.50;;;;;;;13.83;68.51;95353.38;1758625;82;21051;-65
2022/06/23 05:19:11;;;;;;;4.42;2.40;;;;;;;13.92;68.18;95352.17;1756837;82;21508;-65
2022/06/23 05:21:44;;;;;;;3.98;2.70;;;;;;;13.99;69.06;95353.69;1758140;81;21022;-65
2022/06/23 05:24:24;;;;;;;3.55;2.45;;;;;;;14.06;68.65;95358.30;1757435;82;21015;-65
2022/06/23 05:27:01;;;;;;;3.92;2.35;;;;;;;14.11;69.09;95353.72;1758627;81;21027;-65
2022/06/23 05:29:39;;;;;;;5.78;2.92;;;;;;;14.12;69.33;95351.46;1758381;81;21042;-65
2022/06/23 05:32:17;;;;;;;4.35;2.25;;;;;;;14.22;69.07;95363.94;1758149;82;21043;-65
2022/06/23 05:35:16;;;;;;;4.20;2.58;;;;;;;14.27;69.39;95358.00;1758472;81;21015;-65
2022/06/23 05:37:54;;;;;;;3.12;2.83;;;;;;;14.41;69.39;95347.75;1744042;82;21031;-65
2022/06/23 05:40:47;;;;;;;3.85;3.33;;;;;;;14.55;68.69;95351.69;1758584;82;21022;-65
2022/06/23 05:43:15;;;;;;;5.62;3.42;;;;;;;14.62;67.84;95347.88;1758900;82;21062;-65
2022/06/23 05:45:46;;;;;;;3.22;2.87;;;;;;;14.71;67.00;95361.64;1758408;82;21071;-65
2022/06/23 05:48:27;;;;;;;5.83;3.33;;;;;;;14.81;66.63;95364.81;1758095;82;21050;-65
2022/06/23 05:51:11;;;;;;;3.37;2.58;;;;;;;14.95;65.64;95362.97;1757774;82;20987;-65
2022/06/23 05:53:52;;;;;;;2.47;2.20;;;;;;;15.09;64.56;95364.63;1755989;82;21014;-65
2022/06/23 05:56:29;;;;;;;2.95;2.00;;;;;;;15.23;63.77;95356.55;1758593;81;21496;-65
2022/06/23 05:59:17;;;;;;;4.45;2.22;;;;;;;15.40;64.10;95364.70;1758253;82;21002;-65
2022/06/23 06:01:48;;;;;;;5.70;2.10;;;;;;;15.55;63.46;95368.05;1758112;82;21495;-65
2022/06/23 06:04:29;;;;;;;4.80;2.10;;;;;;;15.73;63.00;95369.58;1757359;81;21007;-65
2022/06/23 06:06:57;;;;;;;4.60;1.90;;;;;;;15.93;62.15;95376.23;1753495;82;21014;-65
2022/06/23 06:09:37;;;;;;;4.15;2.20;;;;;;;16.12;61.32;95370.96;1758526;81;21031;-65
2022/06/23 06:12:33;;;;;;;3.45;2.20;;;;;;;16.31;61.08;95380.83;1758560;82;21015;-65
2022/06/23 06:15:06;;;;;;;7.22;2.10;;;;;;;16.49;60.73;95376.47;1758505;81;21011;-65
2022/06/23 06:17:35;;;;;;;8.95;2.50;;;;;;;16.66;60.51;95381.89;1756426;82;21084;-65
2022/06/23 06:20:07;;;;;;;8.90;2.25;;;;;;;16.79;59.25;95375.09;1730995;82;21054;-65
2022/06/23 06:22:51;;;;;;;11.50;2.33;;;;;;;16.95;59.59;95376.56;1758463;81;21551;-65
2022/06/23 06:25:35;;;;;;;13.10;2.40;;;;;;;17.09;59.28;95381.25;1757155;82;21006;-65
2022/06/23 06:28:16;;;;;;;6.95;2.20;;;;;;;17.22;59.40;95381.05;1758500;81;21026;-65
2022/06/23 06:31:15;;;;;;;9.85;4.72;;;;;;;17.39;58.79;95378.05;1758389;82;21019;-65
2022/06/23 06:34:13;;;;;;;8.28;2.65;;;;;;;17.65;57.79;95386.95;1758211;82;21062;-65
2022/06/23 06:36:49;;;;;;;6.47;2.42;;;;;;;17.88;58.26;95387.64;1758652;81;20990;-65
2022/06/23 06:39:37;;;;;;;4.22;2.10;;;;;;;18.10;56.67;95384.75;1758527;81;21050;-65
2022/06/23 06:42:29;;;;;;;9.95;2.33;;;;;;;18.30;55.73;95391.73;1757457;82;21015;-65
2022/06/23 06:45:03;;;;;;;6.60;1.60;;;;;;;18.77;53.89;95379.89;1757589;82;20995;-65
2022/06/23 06:47:34;;;;;;;7.28;1.90;;;;;;;18.77;53.89;95379.89;1758589;82;21312;-65
2022/06/23 06:50:20;;;;;;;5.58;2.10;;;;;;;19.09;53.60;95379.05;1758566;81;21034;-65
2022/06/23 06:52:48;;;;;;;52.43;44.70;;;;;;;19.36;52.55;95386.02;1758601;81;21512;-65
2022/06/23 06:55:33;;;;;;;15.43;9.80;;;;;;;19.61;51.17;95378.80;1758336;82;21030;-65
2022/06/23 06:58:19;;;;;;;15.03;7.25;;;;;;;19.76;50.04;95385.11;1757946;82;20967;-65
2022/06/23 07:00:51;;;;;;;8.45;3.75;;;;;;;19.92;49.21;95385.06;1758050;81;21046;-65
2022/06/23 07:03:22;;;;;;;7.43;2.40;;;;;;;20.08;48.12;95381.40;1758929;82;21006;-65
2022/06/23 07:06:00;;;;;;;9.68;2.25;;;;;;;20.25;47.12;95381.70;1762352;81;21057;-65
2022/06/23 07:08:41;;;;;;;6.50;1.70;;;;;;;20.40;46.06;95383.09;1764949;81;21045;-65
2022/06/23 07:11:33;;;;;;;3.87;1.75;;;;;;;20.53;45.52;95376.87;1765059;81;21082;-65
2022/06/23 07:14:17;;;;;;;3.77;1.42;;;;;;;20.69;42.42;95374.65;1765450;81;21010;-65
2022/06/23 07:16:55;;;;;;;5.85;1.60;;;;;;;20.86;41.11;95382.47;1765078;81;21099;-65
2022/06/23 07:19:36;;;;;;;4.62;1.98;;;;;;;21.01;41.75;95375.28;1756468;81;21010;-65
2022/06/23 07:22:17;;;;;;;3.30;1.32;;;;;;;21.15;40.57;95373.94;1764992;81;21496;-65
2022/06/23 07:24:52;;;;;;;2.83;1.40;;;;;;;21.25;39.28;95378.73;1765318;81;20959;-65
2022/06/23 07:27:45;;;;;;;4.53;1.50;;;;;;;21.30;37.59;95378.80;1765242;81;21484;-65
2022/06/23 07:30:43;;;;;;;1.77;1.65;;;;;;;21.48;39.16;95382.15;1763290;81;21500;-65
2022/06/23 07:33:27;;;;;;;1.65;1.40;;;;;;;21.54;38.49;95387.11;1764881;81;21049;-65
2022/06/23 07:36:19;;;;;;;6.47;1.60;;;;;;;21.53;37.63;95389.91;1765254;81;21045;-65
2022/06/23 07:38:53;;;;;;;3.35;1.40;;;;;;;21.70;37.87;95393.70;1765297;81;21007;-65
2022/06/23 07:41:37;;;;;;;3.95;1.70;;;;;;;21.89;37.40;95400.53;1765266;81;21037;-65
2022/06/23 07:44:28;;;;;;;2.00;1.20;;;;;;;22.01;38.33;95395.20;1765557;81;20983;-65
2022/06/23 07:46:55;;;;;;;1.85;1.37;;;;;;;22.14;37.71;95399.75;1765279;81;21031;-65
2022/06/23 07:49:22;;;;;;;5.30;1.60;;;;;;;22.22;36.76;95394.25;1765181;81;21014;-65
2022/06/23 07:51:48;;;;;;;2.70;1.50;;;;;;;22.27;36.33;95399.81;1765070;81;21018;-65
2022/06/23 07:54:19;;;;;;;2.00;1.42;;;;;;;22.38;35.54;95405.34;1765533;81;20955;-65
2022/06/23 07:56:47;;;;;;;5.05;2.17;;;;;;;22.53;36.85;95406.08;1765363;81;21027;-65
2022/06/23 07:59:17;;;;;;;2.60;1.98;;;;;;;22.62;36.30;95410.34;1765366;81;21491;-65
2022/06/23 08:02:09;;;;;;;4.10;2.35;;;;;;;22.74;37.01;95408.64;1765306;81;21014;-65
2022/06/23 08:04:57;;;;;;;4.33;2.20;;;;;;;22.89;37.43;95406.22;1765310;81;20967;-65
2022/06/23 08:07:25;;;;;;;1.87;1.65;;;;;;;22.99;36.67;95406.47;1766159;81;21101;-65
2022/06/23 08:10:00;;;;;;;1.98;1.70;;;;;;;23.11;36.06;95408.79;1766035;81;21093;-65
2022/06/23 08:12:53;;;;;;;2.60;1.70;;;;;;;23.25;35.48;95407.79;1765573;81;21512;-65
2022/06/23 08:18:52;;;;;;;2.92;1.50;;;;;;;23.40;33.90;95408.52;1766433;81;21331;-65
2022/06/23 08:21:33;;;;;;;3.77;1.67;;;;;;;23.43;34.01;95414.53;1766502;81;21034;-65
2022/06/23 08:24:14;;;;;;;2.65;1.60;;;;;;;23.53;33.71;95414.23;1738574;81;21010;-65
2022/06/23 08:26:48;;;;;;;2.25;1.50;;;;;;;23.48;33.30;95412.36;1829976;78;21050;-66
2022/06/23 08:29:19;;;;;;;1.85;1.62;;;;;;;23.60;33.51;95413.80;1829742;78;21446;-66
2022/06/23 08:31:47;;;;;;;3.57;1.57;;;;;;;23.61;32.39;95415.51;1829952;78;21031;-66
2022/06/23 08:34:14;;;;;;;1.92;1.37;;;;;;;23.64;31.67;95414.82;1829745;78;21076;-65
2022/06/23 08:36:50;;;;;;;7.25;1.92;;;;;;;23.70;30.71;95414.84;1830028;78;21062;-65
2022/06/23 08:39:25;;;;;;;2.30;1.45;;;;;;;23.77;31.66;95415.30;1829593;78;21004;-65
2022/06/23 08:42:00;;;;;;;1.60;1.50;;;;;;;23.82;31.68;95418.02;1829457;78;21468;-66
2022/06/23 08:44:42;;;;;;;2.15;1.40;;;;;;;23.86;30.36;95419.98;1829695;78;20972;-66
2022/06/23 08:47:16;;;;;;;4.72;1.70;;;;;;;24.05;32.03;95422.19;1828645;78;21030;-66
2022/06/23 08:49:52;;;;;;;3.65;1.60;;;;;;;24.19;31.69;95418.84;1830079;78;20952;-65
2022/06/23 08:53:11;;;;;;;1.92;1.30;;;;;;;24.27;30.57;95417.40;1827803;78;20980;-65
2022/06/23 08:55:47;;;;;;;3.15;1.35;;;;;;;24.38;30.04;95424.17;1829920;78;20952;-66
2022/06/23 08:58:37;;;;;;;3.50;1.70;;;;;;;24.47;30.49;95432.06;1829312;78;20976;-65
2022/06/23 09:01:33;;;;;;;2.12;1.20;;;;;;;24.35;30.40;95423.92;1829464;78;21011;-65
2022/06/23 09:04:28;;;;;;;2.87;1.20;;;;;;;24.51;29.81;95422.28;1799132;80;21360;-65
2022/06/23 09:07:09;;;;;;;2.95;1.45;;;;;;;24.58;29.86;95428.08;1829314;78;21067;-65
2022/06/23 09:09:53;;;;;;;1.40;1.30;;;;;;;24.59;30.10;95432.02;1830933;78;20976;-65
2022/06/23 09:12:40;;;;;;;2.05;1.37;;;;;;;24.63;30.56;95422.33;1830109;78;21027;-65
2022/06/23 09:15:33;;;;;;;2.37;1.55;;;;;;;24.78;31.29;95428.74;1831699;78;21477;-66
2022/06/23 09:18:16;;;;;;;2.23;1.60;;;;;;;24.93;30.92;95421.30;1830075;78;21517;-66
2022/06/23 09:21:13;;;;;;;1.75;1.30;;;;;;;24.90;30.49;95422.89;1831858;78;21367;-65
2022/06/23 09:24:09;;;;;;;4.70;1.70;;;;;;;24.96;30.78;95414.30;1831840;78;21008;-66
2022/06/23 09:26:45;;;;;;;2.58;1.80;;;;;;;25.13;30.53;95413.47;1772315;78;20984;-65
2022/06/23 09:29:40;;;;;;;3.55;2.20;;;;;;;25.29;31.01;95411.78;1831750;78;21024;-65
2022/06/23 09:32:35;;;;;;;3.80;1.52;;;;;;;25.60;31.44;95416.45;1830517;78;20996;-65
2022/06/23 09:35:46;;;;;;;2.52;1.50;;;;;;;25.83;29.85;95415.03;1812623;78;21494;-66
2022/06/23 09:38:50;;;;;;;1.72;1.30;;;;;;;26.08;30.73;95413.90;1831754;78;21007;-65
2022/06/23 09:42:12;;;;;;;2.75;1.60;;;;;;;26.21;29.08;95418.67;1831200;78;21055;-66
2022/06/23 09:44:56;;;;;;;2.77;1.60;;;;;;;26.37;29.43;95414.17;1831469;78;21075;-66
2022/06/23 09:47:41;;;;;;;3.17;1.57;;;;;;;26.48;29.45;95420.02;1823579;78;21004;-66
2022/06/23 09:50:31;;;;;;;3.08;1.50;;;;;;;26.70;29.38;95413.68;1830833;78;20976;-65
2022/06/23 09:53:10;;;;;;;2.45;1.40;;;;;;;26.85;28.11;95400.18;1831694;78;20964;-65
2022/06/23 09:56:12;;;;;;;1.75;1.60;;;;;;;26.94;27.62;95399.39;1830070;78;21011;-65
2022/06/23 09:59:19;;;;;;;3.92;1.70;;;;;;;26.80;27.08;95407.84;1793792;80;21064;-65
2022/06/23 10:02:11;;;;;;;2.47;1.50;;;;;;;26.81;28.01;95419.52;1831470;78;21059;-65
2022/06/23 10:05:05;;;;;;;2.65;1.45;;;;;;;27.01;27.39;95412.38;1668929;78;20980;-65
2022/06/23 10:07:54;;;;;;;4.17;1.60;;;;;;;27.09;26.98;95418.87;1834611;78;21011;-65
2022/06/23 10:10:55;;;;;;;1.62;1.40;;;;;;;27.04;26.97;95415.70;1762495;81;21015;-65
2022/06/23 10:13:49;;;;;;;1.72;1.60;;;;;;;27.01;27.98;95410.53;1767719;81;20987;-65
2022/06/23 10:16:33;;;;;;;8.50;1.90;;;;;;;27.28;27.38;95415.92;1751200;81;21014;-65
2022/06/23 10:19:24;;;;;;;2.77;1.60;;;;;;;27.44;26.91;95420.83;1795628;80;21077;-65
2022/06/23 10:22:22;;;;;;;3.60;1.62;;;;;;;27.26;27.41;95416.55;1795539;80;21455;-65
2022/06/23 10:25:19;;;;;;;1.98;1.50;;;;;;;27.42;27.13;95423.70;1795847;80;21526;-65
2022/06/23 10:28:32;;;;;;;2.98;1.37;;;;;;;27.53;26.67;95415.97;1795820;80;20974;-65
2022/06/23 10:31:35;;;;;;;3.30;1.77;;;;;;;27.78;26.73;95415.98;1795588;80;21413;-65
2022/06/23 10:34:22;;;;;;;4.33;1.70;;;;;;;27.78;25.75;95407.84;1795964;80;21053;-65
2022/06/23 10:37:10;;;;;;;2.47;1.70;;;;;;;27.47;25.10;95411.08;1795865;80;22209;-66
2022/06/23 10:40:06;;;;;;;2.52;1.70;;;;;;;27.22;26.10;95415.13;1796128;80;20997;-65
2022/06/23 10:42:58;;;;;;;5.12;1.40;;;;;;;27.28;26.70;95414.57;1795820;80;20946;-65
2022/06/23 10:45:49;;;;;;;1.30;1.20;;;;;;;27.54;26.19;95409.53;1795228;80;21033;-65
2022/06/23 10:48:47;;;;;;;3.12;1.20;;;;;;;27.72;25.96;95402.96;1795923;80;21499;-66
2022/06/23 10:51:46;;;;;;;3.17;1.55;;;;;;;27.70;25.33;95404.98;1795162;80;21816;-65
2022/06/23 10:54:30;;;;;;;2.20;1.37;;;;;;;27.82;24.32;95407.47;1794898;80;20966;-65
2022/06/23 10:57:34;;;;;;;6.55;1.40;;;;;;;28.12;25.54;95408.88;1795811;80;21509;-65
2022/06/23 11:00:26;;;;;;;1.80;1.40;;;;;;;28.41;24.80;95404.84;1795504;80;21017;-65
2022/06/23 11:03:24;;;;;;;1.85;1.40;;;;;;;28.64;25.51;95404.94;1795522;80;21021;-65
2022/06/23 11:06:02;;;;;;;4.97;1.27;;;;;;;28.76;24.03;95406.16;1795366;80;21522;-66
2022/06/23 11:08:49;;;;;;;3.15;1.35;;;;;;;28.82;23.81;95402.84;1796048;79;21013;-65
2022/06/23 11:11:33;;;;;;;3.05;1.40;;;;;;;28.80;23.77;95402.98;1796379;80;21436;-65
2022/06/23 11:14:57;;;;;;;2.98;1.50;;;;;;;28.72;23.90;95404.21;1795090;80;21013;-65
2022/06/23 11:17:44;;;;;;;3.95;1.42;;;;;;;28.80;24.44;95402.12;1744626;82;21037;-65
2022/06/23 11:20:29;;;;;;;3.83;1.22;;;;;;;28.68;24.27;95409.59;1840488;78;21015;-65
2022/06/23 11:23:24;;;;;;;2.80;1.42;;;;;;;28.87;24.21;95414.98;1839973;78;21031;-65
2022/06/23 11:26:04;;;;;;;3.50;1.20;;;;;;;28.84;23.79;95416.64;1840567;78;21050;-65
2022/06/23 11:28:48;;;;;;;3.67;1.30;;;;;;;28.78;22.95;95410.91;1840899;78;21015;-65
2022/06/23 11:31:33;;;;;;;2.65;1.37;;;;;;;28.59;24.17;95409.09;1840402;78;20947;-65
2022/06/23 11:34:31;;;;;;;2.40;1.42;;;;;;;28.73;24.04;95414.09;1840642;78;21003;-65
2022/06/23 11:37:12;;;;;;;3.70;1.20;;;;;;;28.86;23.58;95411.08;1840573;78;21000;-65
2022/06/23 11:40:02;;;;;;;2.08;1.20;;;;;;;28.89;23.82;95416.20;1812781;78;21047;-65
2022/06/23 11:42:54;;;;;;;1.57;1.22;;;;;;;28.86;22.90;95412.43;1841078;78;21004;-65
2022/06/23 11:45:55;;;;;;;2.55;1.20;;;;;;;28.98;23.70;95409.03;1840771;78;21054;-65
2022/06/23 11:48:43;;;;;;;3.40;1.17;;;;;;;28.97;22.44;95407.33;1840587;78;21087;-66
2022/06/23 11:52:05;;;;;;;7.60;1.60;;;;;;;29.12;22.44;95392.31;1840689;78;21047;-65
2022/06/23 11:54:53;;;;;;;8.28;1.77;;;;;;;28.96;21.70;95396.97;1840884;78;20995;-66
2022/06/23 11:57:34;;;;;;;1.77;1.22;;;;;;;28.96;22.24;95399.69;1792028;78;21015;-65
2022/06/23 12:00:12;;;;;;;2.90;1.17;;;;;;;29.10;22.71;95399.75;1839785;78;21154;-65
2022/06/23 12:02:59;;;;;;;3.83;1.10;;;;;;;29.35;21.74;95395.53;1840425;78;21477;-65
2022/06/23 12:05:58;;;;;;;1.32;1.00;;;;;;;29.56;21.63;95396.68;1776349;78;20995;-65
2022/06/23 12:08:45;;;;;;;2.65;1.10;;;;;;;29.78;20.71;95400.03;1806875;78;21015;-65
2022/06/23 12:11:12;;;;;;;1.02;1.00;;;;;;;29.74;20.04;95404.42;1840757;78;21003;-65
2022/06/23 12:13:40;;;;;;;1.98;0.90;;;;;;;29.97;19.74;95410.30;1840872;78;21520;-66
2022/06/23 12:16:07;;;;;;;1.72;1.00;;;;;;;30.03;18.81;95411.55;1840432;78;21525;-66
2022/06/23 12:18:51;;;;;;;3.72;0.78;;;;;;;30.23;17.34;95407.35;1840471;78;21489;-66
2022/06/23 16:39:38;;;;;;;3.98;1.82;;;;;;;24.30;33.01;95455.77;1795722;79;21154;-65
2022/06/23 16:42:23;;;;;;;3.37;1.40;;;;;;;23.98;33.01;95457.66;1820547;78;21051;-65
2022/06/23 16:45:10;;;;;;;6.22;1.65;;;;;;;23.82;32.62;95460.28;1746365;79;21087;-65
2022/06/23 16:47:45;;;;;;;4.65;1.52;;;;;;;23.73;33.88;95461.79;1819447;78;20965;-65
2022/06/23 16:50:26;;;;;;;3.98;1.25;;;;;;;23.53;34.28;95464.55;1820553;79;21521;-65
2022/06/23 16:53:07;;;;;;;8.38;3.17;;;;;;;23.22;35.41;95461.84;1818889;79;21134;-65
2022/06/23 16:56:14;;;;;;;8.95;2.27;;;;;;;22.97;34.62;95467.59;1820599;79;21012;-65
2022/06/23 16:59:04;;;;;;;22.90;1.65;;;;;;;22.83;37.34;95474.37;1820294;79;21024;-65
2022/06/23 17:01:52;;;;;;;7.80;1.45;;;;;;;22.57;38.38;95473.00;1820317;79;21024;-65
2022/06/23 17:04:40;;;;;;;2.80;1.82;;;;;;;22.33;37.85;95474.19;1815876;79;20992;-65
2022/06/23 17:07:38;;;;;;;9.58;1.60;;;;;;;22.19;37.30;95469.72;1820620;79;20996;-65
2022/06/23 17:10:22;;;;;;;3.15;1.70;;;;;;;21.99;38.11;95468.31;1797687;78;21027;-65
2022/06/23 17:12:57;;;;;;;6.53;1.65;;;;;;;21.78;38.47;95467.05;1820446;79;21467;-65
2022/06/23 17:15:31;;;;;;;2.35;1.42;;;;;;;21.60;40.75;95467.75;1819968;79;20995;-66
2022/06/23 17:18:03;;;;;;;3.33;1.47;;;;;;;21.34;42.19;95466.68;1798048;79;21482;-65